createdAt,value
2022-07-26T00:00:42.528Z,42.07
2022-07-26T00:03:15.514Z,41.62
2022-07-26T00:05:47.801Z,41.85
2022-07-26T00:08:19.852Z,42.47
2022-07-26T00:10:53.269Z,42.61
2022-07-26T00:13:25.437Z,43.09
2022-07-26T00:16:03.019Z,42.71
2022-07-26T00:18:35.680Z,43.05
2022-07-26T00:21:08.195Z,43.57
2022-07-26T00:23:40.799Z,43.44
2022-07-26T00:26:12.949Z,43.32
2022-07-26T00:28:47.255Z,42.87
2022-07-26T00:31:19.354Z,42.30
2022-07-26T00:33:51.547Z,41.95
2022-07-26T00:36:23.954Z,41.82
2022-07-26T00:38:56.032Z,40.94
2022-07-26T00:41:27.975Z,40.96
2022-07-26T00:44:01.745Z,41.86
2022-07-26T00:46:33.924Z,42.35
2022-07-26T00:49:06.773Z,42.51
2022-07-26T00:51:39.361Z,42.38
2022-07-26T00:54:11.813Z,43.18
2022-07-26T00:56:44.343Z,43.49
2022-07-26T00:59:17.421Z,43.83
2022-07-26T01:01:49.697Z,42.16
2022-07-26T01:04:22.004Z,42.62
2022-07-26T01:06:54.431Z,42.80
2022-07-26T01:09:27.256Z,41.81
2022-07-26T01:12:00.261Z,42.65
2022-07-26T01:14:32.415Z,42.72
2022-07-26T01:17:04.499Z,43.59
2022-07-26T01:19:36.657Z,42.72
2022-07-26T01:22:14.161Z,42.55
2022-07-26T01:24:46.923Z,42.95
2022-07-26T01:27:19.183Z,43.10
2022-07-26T01:29:51.924Z,43.10
2022-07-26T01:32:23.965Z,42.61
2022-07-26T01:34:56.108Z,42.79
2022-07-26T01:37:28.404Z,42.83
2022-07-26T01:40:00.400Z,42.69
2022-07-26T01:42:32.491Z,42.67
2022-07-26T01:45:04.739Z,42.99
2022-07-26T01:47:37.053Z,43.22
2022-07-26T01:50:12.075Z,43.94
2022-07-26T01:52:44.869Z,46.15
2022-07-26T01:55:17.106Z,47.64
2022-07-26T01:57:49.490Z,48.46
2022-07-26T02:00:22.836Z,50.26
2022-07-26T02:02:55.199Z,52.79
2022-07-26T02:05:27.439Z,54.76
2022-07-26T02:08:00.027Z,56.79
2022-07-26T02:10:45.996Z,58.49
2022-07-26T02:13:20.016Z,59.91
2022-07-26T02:15:52.063Z,61.57
2022-07-26T02:18:24.800Z,62.47
2022-07-26T02:20:58.137Z,63.37
2022-07-26T02:23:32.533Z,64.08
2022-07-26T02:26:04.818Z,64.27
2022-07-26T02:28:36.876Z,65.04
2022-07-26T02:31:09.029Z,65.72
2022-07-26T02:33:44.819Z,66.67
2022-07-26T02:36:16.887Z,67.25
2022-07-26T02:38:48.884Z,68.39
2022-07-26T02:41:21.012Z,68.93
2022-07-26T02:43:53.346Z,69.01
2022-07-26T02:46:25.493Z,69.08
2022-07-26T02:48:57.782Z,68.95
2022-07-26T02:51:30.240Z,69.12
2022-07-26T02:54:02.318Z,69.24
2022-07-26T02:56:34.695Z,69.43
2022-07-26T02:59:07.569Z,69.85
2022-07-26T03:01:39.881Z,69.98
2022-07-26T03:04:12.083Z,69.77
2022-07-26T03:06:44.035Z,69.13
2022-07-26T03:09:17.282Z,68.86
2022-07-26T03:11:49.728Z,68.81
2022-07-26T03:14:21.941Z,69.16
2022-07-26T03:16:53.957Z,69.23
2022-07-26T03:19:25.977Z,69.45
2022-07-26T03:21:58.369Z,69.66
2022-07-26T03:24:30.450Z,69.92
2022-07-26T03:27:02.869Z,69.74
2022-07-26T03:29:35.467Z,69.95
2022-07-26T03:32:10.083Z,69.67
2022-07-26T03:34:42.713Z,70.12
2022-07-26T03:37:14.871Z,71.89
2022-07-26T03:39:47.511Z,74.29
2022-07-26T03:42:19.867Z,73.51
2022-07-26T03:44:51.944Z,73.28
2022-07-26T03:47:23.947Z,73.60
2022-07-26T03:49:56.078Z,74.12
2022-07-26T03:52:29.203Z,74.08
2022-07-26T03:55:01.536Z,74.21
2022-07-26T03:57:34.014Z,74.46
2022-07-26T04:00:09.430Z,75.02
2022-07-26T04:02:41.593Z,75.80
2022-07-26T04:05:14.085Z,74.59
2022-07-26T04:07:53.021Z,73.43
2022-07-26T04:10:26.422Z,72.87
2022-07-26T04:12:58.960Z,72.63
2022-07-26T04:15:31.029Z,71.76
2022-07-26T04:18:02.993Z,71.17
2022-07-26T04:20:35.388Z,71.12
2022-07-26T04:23:11.094Z,70.72
2022-07-26T04:25:44.849Z,69.85
2022-07-26T04:28:18.808Z,69.57
2022-07-26T04:30:54.889Z,69.21
2022-07-26T04:33:27.585Z,69.48
2022-07-26T04:35:59.670Z,69.39
2022-07-26T04:38:32.092Z,69.37
2022-07-26T04:41:04.261Z,70.16
2022-07-26T04:43:36.390Z,69.66
2022-07-26T04:46:08.639Z,69.87
2022-07-26T04:48:41.485Z,69.82
2022-07-26T04:51:13.721Z,69.69
2022-07-26T04:53:46.597Z,69.34
2022-07-26T04:56:18.773Z,69.37
2022-07-26T04:58:51.042Z,69.36
2022-07-26T05:01:23.363Z,69.25
2022-07-26T05:03:55.492Z,68.98
2022-07-26T05:06:27.585Z,68.55
2022-07-26T05:08:59.656Z,68.28
2022-07-26T05:11:32.110Z,68.38
2022-07-26T05:14:04.522Z,67.79
2022-07-26T05:16:39.273Z,67.79
2022-07-26T05:19:16.619Z,67.73
2022-07-26T05:21:48.608Z,68.07
2022-07-26T05:24:20.806Z,67.53
2022-07-26T05:26:56.840Z,67.45
2022-07-26T05:29:30.804Z,67.34
2022-07-26T05:32:03.300Z,67.37
2022-07-26T05:34:35.629Z,67.29
2022-07-26T05:37:08.163Z,67.30
2022-07-26T05:39:40.261Z,66.66
2022-07-26T05:42:12.350Z,66.21
2022-07-26T05:44:44.565Z,65.92
2022-07-26T05:47:16.744Z,65.69
2022-07-26T05:49:48.933Z,64.99
2022-07-26T05:52:20.975Z,64.67
2022-07-26T05:54:53.460Z,64.59
2022-07-26T05:57:26.079Z,64.36
2022-07-26T05:59:58.707Z,63.38
2022-07-26T06:02:30.827Z,63.18
2022-07-26T06:05:03.057Z,63.22
2022-07-26T06:07:35.198Z,63.21
2022-07-26T06:10:09.326Z,63.19
2022-07-26T06:12:41.765Z,63.11
2022-07-26T06:15:15.048Z,62.57
2022-07-26T06:17:48.042Z,62.35
2022-07-26T06:20:20.171Z,62.35
2022-07-26T06:22:53.037Z,62.76
2022-07-26T06:25:25.276Z,62.82
2022-07-26T06:27:57.429Z,63.14
2022-07-26T06:30:29.877Z,63.31
2022-07-26T06:33:02.077Z,62.91
2022-07-26T06:35:36.108Z,62.64
2022-07-26T06:38:08.504Z,62.55
2022-07-26T06:40:41.066Z,62.84
2022-07-26T06:43:13.182Z,62.68
2022-07-26T06:45:45.301Z,62.86
2022-07-26T06:48:17.407Z,62.64
2022-07-26T06:50:49.795Z,62.88
2022-07-26T06:53:22.064Z,62.81
2022-07-26T06:55:54.305Z,63.01
2022-07-26T06:58:26.450Z,62.75
2022-07-26T07:00:58.706Z,62.97
2022-07-26T07:03:30.993Z,62.96
2022-07-26T07:06:27.201Z,62.73
2022-07-26T07:08:59.730Z,62.23
2022-07-26T07:11:31.985Z,62.42
2022-07-26T07:14:04.356Z,61.97
2022-07-26T07:16:36.749Z,61.82
2022-07-26T07:19:09.464Z,61.82
2022-07-26T07:21:44.753Z,61.81
2022-07-26T07:24:17.367Z,61.92
2022-07-26T07:26:49.530Z,61.59
2022-07-26T07:29:23.228Z,61.60
2022-07-26T07:31:55.887Z,61.32
2022-07-26T07:34:28.823Z,60.80
2022-07-26T07:37:01.073Z,60.76
2022-07-26T07:39:38.508Z,60.54
2022-07-26T07:42:10.966Z,61.11
2022-07-26T07:44:43.135Z,60.78
2022-07-26T07:47:15.420Z,60.43
2022-07-26T07:49:47.625Z,60.33
2022-07-26T07:52:19.824Z,59.41
2022-07-26T07:54:52.031Z,59.57
2022-07-26T07:57:24.797Z,59.59
2022-07-26T07:59:57.853Z,59.63
2022-07-26T08:02:30.381Z,59.31
2022-07-26T08:05:14.365Z,58.18
2022-07-26T08:07:47.605Z,58.47
2022-07-26T08:10:19.824Z,57.52
2022-07-26T08:12:51.901Z,57.20
2022-07-26T08:15:24.485Z,57.63
2022-07-26T08:17:56.816Z,57.16
2022-07-26T08:20:30.730Z,57.04
2022-07-26T08:23:03.118Z,57.78
2022-07-26T08:25:35.255Z,57.83
2022-07-26T08:28:19.746Z,57.88
2022-07-26T08:31:00.192Z,57.30
2022-07-26T08:33:32.578Z,56.99
2022-07-26T08:36:04.866Z,57.22
2022-07-26T08:38:36.961Z,56.87
2022-07-26T08:41:09.409Z,56.02
2022-07-26T08:43:52.233Z,55.97
2022-07-26T08:46:27.976Z,55.77
2022-07-26T08:49:00.516Z,55.66
2022-07-26T08:51:34.204Z,55.72
2022-07-26T08:54:06.425Z,55.36
2022-07-26T08:56:42.687Z,55.64
2022-07-26T08:59:22.284Z,54.99
2022-07-26T09:01:57.554Z,54.72
2022-07-26T09:04:32.096Z,54.24
2022-07-26T09:07:07.164Z,53.34
2022-07-26T09:09:41.076Z,53.66
2022-07-26T09:12:21.113Z,53.38
2022-07-26T09:14:54.015Z,52.58
2022-07-26T09:17:38.002Z,51.99
2022-07-26T09:20:13.113Z,51.40
2022-07-26T09:26:05.033Z,50.25
2022-07-26T09:28:33.761Z,50.77
2022-07-26T09:31:05.488Z,51.10
2022-07-26T09:33:46.240Z,50.40
2022-07-26T09:36:16.483Z,50.30
2022-07-26T09:38:49.885Z,49.39
2022-07-26T09:41:20.624Z,49.09
2022-07-26T09:43:53.671Z,49.65
2022-07-26T09:46:25.467Z,50.26
2022-07-26T09:49:11.860Z,50.11
2022-07-26T09:51:43.228Z,49.78
2022-07-26T09:54:18.275Z,49.91
2022-07-26T09:56:54.306Z,49.41
2022-07-26T09:59:28.186Z,49.03
2022-07-26T10:02:01.548Z,48.53
2022-07-26T10:04:34.106Z,48.76
2022-07-26T10:07:07.359Z,47.02
2022-07-26T10:09:46.937Z,47.31
2022-07-26T10:12:20.468Z,45.90
2022-07-26T10:14:52.755Z,45.16
2022-07-26T10:17:49.515Z,45.75
2022-07-26T10:20:43.240Z,46.05
2022-07-26T10:23:37.254Z,47.14
2022-07-26T10:26:12.025Z,47.49
2022-07-26T10:28:44.356Z,47.72
2022-07-26T10:31:33.260Z,47.72
2022-07-26T10:34:05.629Z,47.28
2022-07-26T10:36:40.353Z,46.40
2022-07-26T10:39:17.743Z,46.09
2022-07-26T10:41:59.130Z,46.23
2022-07-26T10:44:32.750Z,45.86
2022-07-26T10:47:15.728Z,45.74
2022-07-26T10:49:57.524Z,46.05
2022-07-26T10:52:31.546Z,46.81
2022-07-26T10:55:13.479Z,47.08
2022-07-26T10:57:48.570Z,47.65
2022-07-26T11:00:23.173Z,47.05
2022-07-26T11:02:58.638Z,45.92
2022-07-26T11:05:35.024Z,45.74
2022-07-26T11:08:10.458Z,45.67
2022-07-26T11:10:44.262Z,45.82
2022-07-26T11:13:19.493Z,45.58
2022-07-26T11:15:59.728Z,44.52
2022-07-26T11:18:35.377Z,44.58
2022-07-26T11:21:15.392Z,44.81
2022-07-26T11:23:51.368Z,44.13
2022-07-26T11:26:24.584Z,43.73
2022-07-26T11:28:59.164Z,44.17
2022-07-26T11:31:50.981Z,44.20
2022-07-26T11:34:33.968Z,43.62
2022-07-26T11:37:07.107Z,43.63
2022-07-26T11:39:39.658Z,43.59
2022-07-26T11:42:16.270Z,44.09
2022-07-26T11:44:50.964Z,44.11
2022-07-26T11:47:24.318Z,43.76
2022-07-26T11:50:18.685Z,43.21
2022-07-26T11:52:55.860Z,43.39
2022-07-26T11:55:32.343Z,43.52
2022-07-26T11:58:08.391Z,43.21
2022-07-26T12:00:40.878Z,43.66
2022-07-26T12:03:13.460Z,44.13
2022-07-26T12:05:46.482Z,44.75
2022-07-26T12:08:18.739Z,44.58
2022-07-26T12:26:37.373Z,43.26
2022-07-26T12:29:30.048Z,43.28
2022-07-26T12:32:12.271Z,43.77
2022-07-26T12:34:56.992Z,43.83
2022-07-26T12:37:39.533Z,44.18
2022-07-26T12:40:17.241Z,44.65
2022-07-26T12:43:01.061Z,44.60
2022-07-26T12:45:36.142Z,44.66
2022-07-26T12:48:11.962Z,44.98
2022-07-26T12:50:44.205Z,44.81
2022-07-26T12:53:16.487Z,44.63
2022-07-26T12:55:49.037Z,43.94
2022-07-26T12:58:21.358Z,43.05
2022-07-26T13:00:54.853Z,42.83
2022-07-26T13:03:27.040Z,42.27
2022-07-26T13:05:59.159Z,41.35
2022-07-26T13:08:32.008Z,41.34
2022-07-26T13:11:05.136Z,40.63
2022-07-26T13:13:37.218Z,40.39
2022-07-26T13:16:12.287Z,40.34
2022-07-26T13:18:44.628Z,40.20
2022-07-26T13:21:16.887Z,40.16
2022-07-26T13:23:49.018Z,40.30
2022-07-26T13:26:21.095Z,40.29
2022-07-26T13:28:55.086Z,40.10
2022-07-26T13:31:28.967Z,40.21
2022-07-26T13:34:01.185Z,41.10
2022-07-26T13:36:34.098Z,40.67
2022-07-26T13:39:06.948Z,40.75
2022-07-26T13:41:39.664Z,40.75
2022-07-26T13:44:11.991Z,40.78
2022-07-26T13:46:47.243Z,41.13
2022-07-26T13:49:19.424Z,41.03
2022-07-26T13:52:01.293Z,41.09
2022-07-26T13:54:34.820Z,40.84
2022-07-26T13:57:08.103Z,41.41
2022-07-26T13:59:40.533Z,41.58
2022-07-26T14:02:13.104Z,41.19
2022-07-26T14:04:45.318Z,41.56
2022-07-26T14:07:17.509Z,41.75
2022-07-26T14:09:49.680Z,41.79
2022-07-26T14:12:21.815Z,41.48
2022-07-26T14:14:54.391Z,40.90
2022-07-26T14:17:26.679Z,41.16
2022-07-26T14:19:58.758Z,39.82
2022-07-26T14:22:31.164Z,39.73
2022-07-26T14:25:03.293Z,39.87
2022-07-26T14:27:35.568Z,40.17
2022-07-26T14:30:09.826Z,40.31
2022-07-26T14:32:42.608Z,40.12
2022-07-26T14:35:16.567Z,39.97
2022-07-26T14:37:48.752Z,40.33
2022-07-26T14:40:20.785Z,41.13
2022-07-26T14:42:52.949Z,40.35
2022-07-26T14:45:25.284Z,39.89
2022-07-26T14:47:57.858Z,39.92
2022-07-26T14:50:42.419Z,39.79
2022-07-26T14:53:22.690Z,39.57
2022-07-26T14:55:54.910Z,39.80
2022-07-26T14:58:27.169Z,39.11
2022-07-26T15:00:59.797Z,39.01
2022-07-26T15:03:33.608Z,38.06
2022-07-26T15:06:05.972Z,38.26
2022-07-26T15:08:38.256Z,38.22
2022-07-26T15:11:10.507Z,37.50
2022-07-26T15:13:43.480Z,37.46
2022-07-26T15:16:15.490Z,37.97
2022-07-26T15:18:47.661Z,38.39
2022-07-26T15:21:20.399Z,38.48
2022-07-26T15:23:52.588Z,38.89
2022-07-26T15:26:24.776Z,39.20
2022-07-26T15:28:56.843Z,39.16
2022-07-26T15:31:36.664Z,39.54
2022-07-26T15:34:11.628Z,39.91
2022-07-26T15:36:44.091Z,39.95
2022-07-26T15:39:17.648Z,40.53
2022-07-26T15:41:51.391Z,40.63
2022-07-26T15:44:25.656Z,41.25
2022-07-26T15:46:58.210Z,41.40
2022-07-26T15:49:31.065Z,41.14
2022-07-26T15:52:04.049Z,41.63
2022-07-26T15:54:37.077Z,41.43
2022-07-26T15:57:10.080Z,41.51
2022-07-26T15:59:42.637Z,41.71
2022-07-26T16:02:15.216Z,41.70
2022-07-26T16:04:47.686Z,41.98
2022-07-26T16:07:20.988Z,42.16
2022-07-26T16:09:53.154Z,42.21
2022-07-26T16:12:25.711Z,42.21
2022-07-26T16:14:57.988Z,42.52
2022-07-26T16:17:30.040Z,42.97
2022-07-26T16:20:02.235Z,43.03
2022-07-26T16:22:34.402Z,43.18
2022-07-26T16:25:07.589Z,43.19
2022-07-26T16:27:39.722Z,43.14
2022-07-26T16:30:14.195Z,43.43
2022-07-26T16:32:47.525Z,43.34
2022-07-26T16:35:19.771Z,43.54
2022-07-26T16:37:52.060Z,43.49
2022-07-26T16:40:24.253Z,43.62
2022-07-26T16:42:56.563Z,43.52
2022-07-26T16:45:28.973Z,45.49
2022-07-26T16:48:01.060Z,47.68
2022-07-26T16:50:33.622Z,48.53
2022-07-26T16:53:10.334Z,49.06
2022-07-26T16:55:45.420Z,49.53
2022-07-26T16:58:17.771Z,49.67
2022-07-26T17:00:50.465Z,50.26
2022-07-26T17:03:23.867Z,50.64
2022-07-26T17:05:56.344Z,51.17
2022-07-26T17:08:28.387Z,51.53
2022-07-26T17:11:00.771Z,51.93
2022-07-26T17:13:32.939Z,52.65
2022-07-26T17:16:05.589Z,52.82
2022-07-26T17:18:37.739Z,53.02
2022-07-26T17:21:09.809Z,53.12
2022-07-26T17:23:41.961Z,53.54
2022-07-26T17:26:14.449Z,54.01
2022-07-26T17:28:46.937Z,54.28
2022-07-26T17:31:19.371Z,54.69
2022-07-26T17:33:51.959Z,55.20
2022-07-26T17:36:26.788Z,57.46
2022-07-26T17:39:02.652Z,58.34
2022-07-26T17:41:35.175Z,59.03
2022-07-26T17:44:07.765Z,59.35
2022-07-26T17:46:39.880Z,59.50
2022-07-26T17:49:12.582Z,59.87
2022-07-26T17:51:46.071Z,59.58
2022-07-26T17:54:18.175Z,59.56
2022-07-26T17:56:50.305Z,60.44
2022-07-26T17:59:23.446Z,60.04
2022-07-26T18:01:55.807Z,60.10
2022-07-26T18:04:28.262Z,60.27
2022-07-26T18:07:00.861Z,59.91
2022-07-26T18:09:33.138Z,59.60
2022-07-26T18:12:06.299Z,59.86
2022-07-26T18:14:38.414Z,59.89
2022-07-26T18:17:10.516Z,60.13
2022-07-26T18:19:43.034Z,59.99
2022-07-26T18:22:15.463Z,60.02
2022-07-26T18:24:47.794Z,59.84
2022-07-26T18:27:19.860Z,59.79
2022-07-26T18:29:52.088Z,59.63
2022-07-26T18:32:24.385Z,60.11
2022-07-26T18:34:56.787Z,59.94
2022-07-26T18:37:30.156Z,60.06
2022-07-26T18:40:02.285Z,59.96
2022-07-26T18:42:36.238Z,60.32
2022-07-26T18:45:10.176Z,60.57
2022-07-26T18:47:42.591Z,60.95
2022-07-26T18:50:17.180Z,61.12
2022-07-26T18:52:48.066Z,60.94
2022-07-26T18:55:20.368Z,61.08
2022-07-26T18:57:52.551Z,61.44
2022-07-26T19:00:25.297Z,61.77
2022-07-26T19:02:57.905Z,61.91
2022-07-26T19:05:34.523Z,62.48
2022-07-26T19:08:08.193Z,62.76
2022-07-26T19:10:41.442Z,62.80
2022-07-26T19:13:14.083Z,63.29
2022-07-26T19:15:46.494Z,63.77
2022-07-26T19:18:19.334Z,64.26
2022-07-26T19:20:51.571Z,64.64
2022-07-26T19:23:23.917Z,64.94
2022-07-26T19:25:57.901Z,65.30
2022-07-26T19:28:30.322Z,65.83
2022-07-26T19:31:02.866Z,66.51
2022-07-26T19:33:34.927Z,66.51
2022-07-26T19:36:09.155Z,67.14
2022-07-26T19:38:41.495Z,67.52
2022-07-26T19:41:16.123Z,67.70
2022-07-26T19:43:49.352Z,67.68
2022-07-26T19:46:21.949Z,68.26
2022-07-26T19:48:57.466Z,68.59
2022-07-26T19:51:31.579Z,68.81
2022-07-26T19:54:03.820Z,68.75
2022-07-26T19:56:37.377Z,69.16
2022-07-26T19:59:10.079Z,69.19
2022-07-26T20:01:44.728Z,69.29
2022-07-26T20:04:17.110Z,69.59
2022-07-26T20:06:49.507Z,69.36
2022-07-26T20:09:22.201Z,69.59
2022-07-26T20:11:54.365Z,69.59
2022-07-26T20:14:26.879Z,69.83
2022-07-26T20:16:59.490Z,70.06
2022-07-26T20:19:31.919Z,69.94
2022-07-26T20:22:04.537Z,70.01
2022-07-26T20:24:38.493Z,70.13
2022-07-26T20:27:11.438Z,70.28
2022-07-26T20:29:43.529Z,70.30
2022-07-26T20:32:15.771Z,70.12
2022-07-26T20:34:48.139Z,70.15
2022-07-26T20:37:21.936Z,70.07
2022-07-26T20:39:54.488Z,69.88
2022-07-26T20:42:27.648Z,69.79
2022-07-26T20:45:01.486Z,69.75
2022-07-26T20:47:33.861Z,69.76
2022-07-26T20:50:08.046Z,69.68
2022-07-26T20:52:40.843Z,70.15
2022-07-26T20:55:14.208Z,70.18
2022-07-26T20:57:46.716Z,70.28
2022-07-26T21:00:22.601Z,70.33
2022-07-26T21:02:58.194Z,70.60
2022-07-26T21:05:36.015Z,70.67
2022-07-26T21:08:10.133Z,71.01
2022-07-26T21:10:46.210Z,71.45
2022-07-26T21:13:18.468Z,71.12
2022-07-26T21:15:53.740Z,70.88
2022-07-26T21:18:30.723Z,71.13
2022-07-26T21:21:03.603Z,70.93
2022-07-26T21:23:35.965Z,70.87
2022-07-26T21:26:09.414Z,71.21
2022-07-26T21:28:41.521Z,70.96
2022-07-26T21:31:14.358Z,71.64
2022-07-26T21:33:47.092Z,71.75
2022-07-26T21:36:19.951Z,71.87
2022-07-26T21:38:52.513Z,71.99
2022-07-26T21:41:25.737Z,72.55
2022-07-26T21:43:58.012Z,73.17
2022-07-26T21:46:30.597Z,72.96
2022-07-26T21:49:03.246Z,73.21
2022-07-26T21:51:36.592Z,73.07
2022-07-26T21:54:08.816Z,72.90
2022-07-26T21:56:40.956Z,72.78
2022-07-26T21:59:14.243Z,73.11
2022-07-26T22:01:46.818Z,72.97
2022-07-26T22:04:18.955Z,73.04
2022-07-26T22:06:51.142Z,72.85
2022-07-26T22:09:23.426Z,72.83
2022-07-26T22:15:24.571Z,72.50
2022-07-26T22:17:56.727Z,72.42
2022-07-26T22:20:33.161Z,72.27
2022-07-26T22:23:08.243Z,72.34
2022-07-26T22:25:41.423Z,72.16
2022-07-26T22:28:18.391Z,72.22
2022-07-26T22:30:51.469Z,72.30
2022-07-26T22:33:23.811Z,71.91
2022-07-26T22:35:56.423Z,72.02
2022-07-26T22:38:29.059Z,71.92
2022-07-26T22:41:01.791Z,72.10
2022-07-26T22:43:34.169Z,72.10
2022-07-26T22:46:06.756Z,72.01
2022-07-26T22:52:01.399Z,72.05
2022-07-26T22:54:33.309Z,72.08
2022-07-26T22:57:05.893Z,71.87
2022-07-26T22:59:38.146Z,71.85
2022-07-26T23:02:10.452Z,71.56
2022-07-26T23:04:42.586Z,71.52
2022-07-26T23:07:15.873Z,71.40
2022-07-26T23:09:50.445Z,71.66
2022-07-26T23:12:22.874Z,71.30
2022-07-26T23:14:55.642Z,71.54
2022-07-26T23:17:28.000Z,71.15
2022-07-26T23:20:00.523Z,70.82
2022-07-26T23:22:32.698Z,70.72
2022-07-26T23:25:05.326Z,70.79
2022-07-26T23:27:37.835Z,70.80
2022-07-26T23:30:11.701Z,71.02
2022-07-26T23:32:43.914Z,70.49
2022-07-26T23:35:16.121Z,69.81
2022-07-26T23:37:48.371Z,69.85
2022-07-26T23:40:21.631Z,69.90
2022-07-26T23:42:54.593Z,69.05
2022-07-26T23:45:27.018Z,68.64
2022-07-26T23:47:59.389Z,69.40
2022-07-26T23:50:31.866Z,70.22
2022-07-26T23:53:03.959Z,69.90
2022-07-26T23:55:36.845Z,69.43
2022-07-26T23:58:11.939Z,69.09
